Список аэропортов
Фактическая погода:

23 апреля, 12:30
Температура: +22°C (+21.9*)
Ветер: юго-западный 13 м/с
Давление: *758 мм
неб. 750 м
Время (МСК)Темп. СВетерВлажностьДавлениеОблачностьОсадки
09:00+18ЮЗ, 4 м/с44%1010 гПаясно
10:00+20ЮЗ, 6 м/с31%1011 гПаясно
11:00+21ЮЗ, 8 м/с29%1011 гПаясно
12:00+21З, 7 м/с27%1012 гПаясно
13:00+22З, 6 м/с24%1012 гПаясно
14:00+22З, 6 м/с25%1012 гПаясно
15:00+22З, 5 м/с27%1012 гПаясно
16:00+21З, 5 м/с30%1012 гПаясно
17:00+21З, 5 м/с32%1013 гПаясно
18:00+20СЗ, 6 м/с33%1013 гПаясно
19:00+18З, 5 м/с32%1013 гПаясно
20:00+17З, 4 м/с37%1014 гПаясно
21:00+16З, 3 м/с43%1015 гПаясно
22:00+15З, 2 м/с50%1015 гПаясно
23:00+15З, 3 м/с52%1015 гПаясно
24 апреля
00:00+15З, 3 м/с49%1016 гПаясно
01:00+15З, 3 м/с49%1016 гПаясно
02:00+14З, 2 м/с54%1016 гПаясно
03:00+14З, 2 м/с60%1016 гПаясно
04:00+13З, 2 м/с66%1016 гПаясно
05:00+13ЮЗ, 1 м/с70%1016 гПаясно
06:00+13ЮЗ, 1 м/с71%1017 гПаясно
07:00+14ЮЗ, 1 м/с64%1017 гПаясно
08:00+16ЮЗ, 1 м/с56%1018 гПаясно
09:00+18ЮЗ, 2 м/с49%1018 гПаясно
10:00+19ЮЗ, 2 м/с47%1018 гПаясно
11:00+19Ю, 4 м/с48%1018 гПамалооблачно
12:00+20Ю, 5 м/с48%1018 гПаясно
13:00+20Ю, 7 м/с49%1018 гПаясно
14:00+20Ю, 7 м/с49%1018 гПаясно
15:00+20Ю, 7 м/с47%1017 гПаясно
16:00+21ЮЗ, 7 м/с47%1017 гПаясно
17:00+21ЮЗ, 6 м/с42%1017 гПаясно
18:00+21ЮЗ, 5 м/с46%1017 гПаясно
19:00+20ЮЗ, 3 м/с53%1017 гПаясно
20:00+19С, 3 м/с48%1018 гПаясно
21:00+18С, 5 м/с51%1018 гПаясно
22:00+17С, 4 м/с61%1019 гПаясно
23:00+16С, 3 м/с62%1019 гПаясно
25 апреля
00:00+15СВ, 3 м/с65%1019 гПаясно
01:00+15С, 3 м/с67%1019 гПаясно
02:00+14СЗ, 3 м/с65%1018 гПаясно
03:00+14СЗ, 3 м/с73%1018 гПаясно
04:00+13З, 3 м/с81%1018 гПаясно
05:00+13СЗ, 2 м/с85%1018 гПаясно
06:00+13СЗ, 2 м/с87%1018 гПаясно
07:00+13СЗ, 2 м/с83%1019 гПаясно
08:00+16СЗ, 1 м/с71%1020 гПаясно
09:00+18Штиль 62%1020 гПамалооблачно